Aérodrome :
LOGIN :

S'inscrire | Disclaimer

   EN    FR    IT 

 










Légende :    VFR   VFR Marginal   IFR   IFR Intensif   IFR Très Intensif
Visi : 
Plafond : 
>= 8 km
>= 3000ft
5 à 8 km
1000 à 3000 ft
1500m à 5 km
500 à 1000 ft
800 à 1500m
200 à 500 ft
< 800m
< 200 ft
Symboles :   Orages  Brouillard  Fortes neiges  Fortes précipitations  Vent > 20 kt
SIGMETs :   Divers  Orages  Givrage  Turbulence  Onde Orograph.  Cendres Volcan.






- Altitude de l'aérodrome : 277 ft
- Code IATA : JER


EGJJ - Jersey

DERNIER METAR :
  • 031950Z AUTO 03008KT 360V060 9999 NCD 14/11 Q1005

METARs EXPIRÉS :
  • 031920Z AUTO 03009KT 9999 NCD 14/11 Q1005
  • 031850Z AUTO 04010KT 010V070 9999 NCD 15/11 Q1005
  • 031820Z AUTO 03011KT 010V070 9999 NCD 15/10 Q1005
  • 031750Z 03012KT 010V070 9999 FEW045 16/10 Q1005
  • 031720Z 02014KT 9999 SCT038 16/10 Q1005

TAF TAF EGJJ
Valide du 03 à 18h jusqu'au 04 à 03h UTC


031702Z 0318/0403 02012KT 9999 FEW035 SCT045
PROB30
TEMPO 0318/0323 8000 SHRA BKN045CB
PROB40
TEMPO 0323/0403 5000 SHRA SCT008 BKN020CB
BECMG 0401/0403 9000 -RA BKN010
ATIS : +44 1534 498 073



MET'MAP, la Météo Aéronautique d'un coup d'oeil ! - Copyright ORBIFLY Décembre 2007 - Disclaimer

ORBIFLY MET'MAP TEAM :

Programmation & Développement : Alexandra Zaïnal
Sur une idée originale de : Baudouin d'Aumeries
Assistance à la programmation : Marc-Olivier Méhu
Soutien technique & logistique : Manuel Goepfert

Contact : metmap@orbifly.com




SOURCES & CREDITS :

   NOAA